createdAt,value
2023-03-14T00:00:55.105Z,10.21
2023-03-14T00:03:21.880Z,10.41
2023-03-14T00:05:48.844Z,10.51
2023-03-14T00:08:15.503Z,10.58
2023-03-14T00:10:42.673Z,10.63
2023-03-14T00:13:10.614Z,10.67
2023-03-14T00:15:37.260Z,10.70
2023-03-14T00:18:04.062Z,10.84
2023-03-14T00:20:33.032Z,10.83
2023-03-14T00:22:59.626Z,10.85
2023-03-14T00:25:26.219Z,10.84
2023-03-14T00:27:52.907Z,11.05
2023-03-14T00:30:21.058Z,11.05
2023-03-14T00:32:47.742Z,10.96
2023-03-14T00:35:14.631Z,11.29
2023-03-14T00:37:41.293Z,11.37
2023-03-14T00:40:09.656Z,11.44
2023-03-14T00:42:36.433Z,11.51
2023-03-14T00:45:03.285Z,11.53
2023-03-14T00:47:31.308Z,11.58
2023-03-14T00:49:57.859Z,11.63
2023-03-14T00:52:24.466Z,11.64
2023-03-14T00:54:51.025Z,11.65
2023-03-14T00:57:17.640Z,11.45
2023-03-14T00:59:44.174Z,11.59
2023-03-14T01:02:10.891Z,11.76
2023-03-14T01:04:38.991Z,11.86
2023-03-14T01:07:05.836Z,11.79
2023-03-14T01:09:32.674Z,11.84
2023-03-14T01:11:59.276Z,11.79
2023-03-14T01:14:25.867Z,11.89
2023-03-14T01:16:52.498Z,11.74
2023-03-14T01:19:20.264Z,11.77
2023-03-14T01:21:48.277Z,11.88
2023-03-14T01:24:14.856Z,11.86
2023-03-14T01:26:41.470Z,11.81
2023-03-14T01:29:09.132Z,11.84
2023-03-14T01:31:38.688Z,11.85
2023-03-14T01:34:05.524Z,11.61
2023-03-14T01:36:32.757Z,11.82
2023-03-14T01:39:02.869Z,11.77
2023-03-14T01:41:29.620Z,11.82
2023-03-14T01:43:58.594Z,11.91
2023-03-14T01:46:34.884Z,11.92
2023-03-14T01:49:21.864Z,11.87
2023-03-14T01:52:01.992Z,11.85
2023-03-14T01:54:35.467Z,11.90
2023-03-14T01:57:09.515Z,11.84
2023-03-14T01:59:38.133Z,11.81
2023-03-14T02:02:07.713Z,11.77
2023-03-14T02:04:36.504Z,11.73
2023-03-14T02:07:11.019Z,11.58
2023-03-14T02:09:45.578Z,11.51
2023-03-14T02:12:21.321Z,11.42
2023-03-14T02:14:52.951Z,11.37
2023-03-14T02:17:31.119Z,11.32
2023-03-14T02:20:20.293Z,11.29
2023-03-14T02:22:54.025Z,11.21
2023-03-14T02:25:30.205Z,10.93
2023-03-14T02:27:58.788Z,11.10
2023-03-14T02:30:28.554Z,11.06
2023-03-14T02:32:59.274Z,11.01
2023-03-14T02:35:30.577Z,10.91
2023-03-14T02:38:03.639Z,11.06
2023-03-14T02:40:34.602Z,10.65
2023-03-14T02:43:02.872Z,10.93
2023-03-14T02:45:41.643Z,11.02
2023-03-14T02:48:15.320Z,10.99
2023-03-14T02:50:43.866Z,11.00
2023-03-14T02:53:12.996Z,11.03
2023-03-14T02:55:39.783Z,11.02
2023-03-14T02:58:13.011Z,10.92
2023-03-14T03:00:40.558Z,10.78
2023-03-14T03:03:09.330Z,10.82
2023-03-14T03:05:36.355Z,10.64
2023-03-14T03:08:03.385Z,10.79
2023-03-14T03:10:31.466Z,10.63
2023-03-14T03:12:58.559Z,10.68
2023-03-14T03:15:29.004Z,10.60
2023-03-14T03:17:56.702Z,10.38
2023-03-14T03:20:23.299Z,10.54
2023-03-14T03:22:49.903Z,10.60
2023-03-14T03:25:17.522Z,10.58
2023-03-14T03:27:46.404Z,10.60
2023-03-14T03:30:17.457Z,10.59
2023-03-14T03:32:45.586Z,10.46
2023-03-14T03:35:13.039Z,10.62
2023-03-14T03:37:40.219Z,9.88
2023-03-14T03:40:08.911Z,10.71
2023-03-14T03:42:37.303Z,10.77
2023-03-14T03:45:07.844Z,10.79
2023-03-14T03:47:39.102Z,10.76
2023-03-14T03:50:09.185Z,10.81
2023-03-14T03:52:35.839Z,10.83
2023-03-14T03:55:02.514Z,10.81
2023-03-14T03:57:29.417Z,10.75
2023-03-14T03:59:57.116Z,10.73
2023-03-14T04:02:23.752Z,10.89
2023-03-14T04:04:51.367Z,10.93
2023-03-14T04:07:20.094Z,10.83
2023-03-14T04:09:47.113Z,10.77
2023-03-14T04:12:31.988Z,10.91
2023-03-14T04:15:08.142Z,10.81
2023-03-14T04:17:36.491Z,11.03
2023-03-14T04:20:04.182Z,11.04
2023-03-14T04:22:37.164Z,11.03
2023-03-14T04:25:04.801Z,10.88
2023-03-14T04:27:35.149Z,10.93
2023-03-14T04:30:04.622Z,10.86
2023-03-14T04:32:53.596Z,10.99
2023-03-14T04:35:23.260Z,10.92
2023-03-14T04:37:55.212Z,11.02
2023-03-14T04:40:23.221Z,11.04
2023-03-14T04:42:53.225Z,10.91
2023-03-14T04:45:20.840Z,11.06
2023-03-14T04:47:47.549Z,11.01
2023-03-14T04:50:18.225Z,11.12
2023-03-14T04:52:45.722Z,10.92
2023-03-14T04:55:13.769Z,10.84
2023-03-14T04:57:40.618Z,11.08
2023-03-14T05:00:11.555Z,11.04
2023-03-14T05:02:53.621Z,10.92
2023-03-14T05:05:45.823Z,10.77
2023-03-14T05:08:20.851Z,10.70
2023-03-14T05:11:06.519Z,10.26
2023-03-14T05:13:52.413Z,10.45
2023-03-14T05:16:54.670Z,10.33
2023-03-14T05:19:43.899Z,10.41
2023-03-14T05:22:26.718Z,10.18
2023-03-14T05:25:11.330Z,10.30
2023-03-14T05:27:39.288Z,10.35
2023-03-14T05:30:35.030Z,10.00
2023-03-14T05:33:20.278Z,10.24
2023-03-14T05:36:08.322Z,10.26
2023-03-14T05:38:53.218Z,10.26
2023-03-14T05:41:49.291Z,10.19
2023-03-14T05:44:43.528Z,10.21
2023-03-14T05:47:30.092Z,10.25
2023-03-14T05:50:11.385Z,10.26
2023-03-14T05:52:55.089Z,10.26
2023-03-14T05:55:55.908Z,10.23
2023-03-14T05:58:34.638Z,10.25
2023-03-14T06:01:12.418Z,10.25
2023-03-14T06:03:58.647Z,10.23
2023-03-14T06:06:25.307Z,10.10
2023-03-14T06:08:52.042Z,10.24
2023-03-14T06:11:18.787Z,10.22
2023-03-14T06:13:46.571Z,10.31
2023-03-14T06:16:15.760Z,10.05
2023-03-14T06:18:42.967Z,10.28
2023-03-14T06:21:10.991Z,10.23
2023-03-14T06:23:38.077Z,10.32
2023-03-14T06:26:06.021Z,10.22
2023-03-14T06:28:32.885Z,10.18
2023-03-14T06:31:01.799Z,10.18
2023-03-14T06:33:35.642Z,10.21
2023-03-14T06:36:03.837Z,10.18
2023-03-14T06:38:30.936Z,10.19
2023-03-14T06:41:04.582Z,10.17
2023-03-14T06:43:36.394Z,10.17
2023-03-14T06:46:04.390Z,10.22
2023-03-14T06:48:32.876Z,10.23
2023-03-14T06:51:00.864Z,10.19
2023-03-14T06:53:27.576Z,10.23
2023-03-14T06:55:54.749Z,10.22
2023-03-14T06:58:22.315Z,10.28
2023-03-14T07:00:49.816Z,10.31
2023-03-14T07:03:22.360Z,10.33
2023-03-14T07:05:50.880Z,10.38
2023-03-14T07:08:18.993Z,10.55
2023-03-14T07:10:45.737Z,10.54
2023-03-14T07:13:12.616Z,10.51
2023-03-14T07:15:50.359Z,10.61
2023-03-14T07:18:17.109Z,10.38
2023-03-14T07:20:46.062Z,10.71
2023-03-14T07:23:14.170Z,10.59
2023-03-14T07:25:48.203Z,10.68
2023-03-14T07:28:16.702Z,10.81
2023-03-14T07:30:46.983Z,10.88
2023-03-14T07:33:18.393Z,10.92
2023-03-14T07:35:45.170Z,10.99
2023-03-14T07:38:12.135Z,10.92
2023-03-14T07:40:51.762Z,10.97
2023-03-14T07:43:18.396Z,10.99
2023-03-14T07:45:51.225Z,11.20
2023-03-14T07:48:18.313Z,11.19
2023-03-14T07:50:45.207Z,11.26
2023-03-14T07:53:11.838Z,11.04
2023-03-14T07:55:41.348Z,11.35
2023-03-14T07:58:09.311Z,11.48
2023-03-14T08:00:35.854Z,11.51
2023-03-14T08:03:02.597Z,11.62
2023-03-14T08:05:29.402Z,11.58
2023-03-14T08:07:56.327Z,11.59
2023-03-14T08:10:23.191Z,11.69
2023-03-14T08:12:49.890Z,11.74
2023-03-14T08:15:18.074Z,11.88
2023-03-14T08:17:44.755Z,11.51
2023-03-14T08:20:12.304Z,12.05
2023-03-14T08:22:38.958Z,12.05
2023-03-14T08:25:06.482Z,12.09
2023-03-14T08:27:33.124Z,12.19
2023-03-14T08:29:59.971Z,12.31
2023-03-14T08:32:28.154Z,12.36
2023-03-14T08:34:54.973Z,12.36
2023-03-14T08:37:26.705Z,12.39
2023-03-14T08:39:54.798Z,12.61
2023-03-14T08:42:21.639Z,12.70
2023-03-14T08:44:48.247Z,12.67
2023-03-14T08:47:14.861Z,12.72
2023-03-14T08:49:42.887Z,12.67
2023-03-14T08:52:09.424Z,12.66
2023-03-14T08:54:36.343Z,12.67
2023-03-14T08:57:02.954Z,12.71
2023-03-14T08:59:29.559Z,12.86
2023-03-14T09:01:56.120Z,12.85
2023-03-14T09:04:22.828Z,12.91
2023-03-14T09:06:50.874Z,12.91
2023-03-14T09:09:17.549Z,12.87
2023-03-14T09:11:44.118Z,13.03
2023-03-14T09:14:11.055Z,13.04
2023-03-14T09:16:37.737Z,13.03
2023-03-14T09:19:04.512Z,12.88
2023-03-14T09:21:31.026Z,12.51
2023-03-14T09:23:58.916Z,12.86
2023-03-14T09:26:25.454Z,12.87
2023-03-14T09:28:52.045Z,12.79
2023-03-14T09:31:18.673Z,12.57
2023-03-14T09:33:45.334Z,12.60
2023-03-14T09:36:11.993Z,12.31
2023-03-14T09:38:38.822Z,12.16
2023-03-14T09:41:15.462Z,12.17
2023-03-14T09:43:43.813Z,12.19
2023-03-14T09:46:11.568Z,11.22
2023-03-14T09:48:38.236Z,11.91
2023-03-14T09:51:12.264Z,11.93
2023-03-14T09:53:41.896Z,11.86
2023-03-14T09:56:15.191Z,11.72
2023-03-14T09:58:45.144Z,11.77
2023-03-14T10:01:17.615Z,11.71
2023-03-14T10:03:46.234Z,11.71
2023-03-14T10:06:13.405Z,11.65
2023-03-14T10:08:41.101Z,11.57
2023-03-14T10:11:10.920Z,11.36
2023-03-14T10:13:48.998Z,11.27
2023-03-14T10:16:15.688Z,10.79
2023-03-14T10:18:46.110Z,10.45
2023-03-14T10:21:21.807Z,10.06
2023-03-14T10:23:49.846Z,10.13
2023-03-14T10:26:18.285Z,9.90
2023-03-14T10:28:48.786Z,9.69
2023-03-14T10:31:16.621Z,9.41
2023-03-14T10:33:43.299Z,9.23
2023-03-14T10:36:19.850Z,9.21
2023-03-14T10:38:46.840Z,9.23
2023-03-14T10:41:17.846Z,9.12
2023-03-14T10:43:45.993Z,9.14
2023-03-14T10:46:17.549Z,9.00
2023-03-14T10:49:06.533Z,9.04
2023-03-14T10:51:33.191Z,8.96
2023-03-14T10:54:02.290Z,8.93
2023-03-14T10:56:35.468Z,8.98
2023-03-14T10:59:05.174Z,9.02
2023-03-14T11:01:40.422Z,8.90
2023-03-14T11:04:22.463Z,8.65
2023-03-14T11:06:51.500Z,8.75
2023-03-14T11:09:24.914Z,8.38
2023-03-14T11:11:51.494Z,8.52
2023-03-14T11:14:27.692Z,8.57
2023-03-14T11:17:00.722Z,8.60
2023-03-14T11:19:47.623Z,8.59
2023-03-14T11:22:29.189Z,8.63
2023-03-14T11:25:10.630Z,8.60
2023-03-14T11:27:43.037Z,8.33
2023-03-14T11:30:19.585Z,8.42
2023-03-14T11:32:51.038Z,8.37
2023-03-14T11:35:23.656Z,8.34
2023-03-14T11:37:55.694Z,8.42
2023-03-14T11:40:24.568Z,8.41
2023-03-14T11:43:00.115Z,8.45
2023-03-14T11:45:35.231Z,8.51
2023-03-14T11:48:26.316Z,8.41
2023-03-14T11:50:55.924Z,8.66
2023-03-14T11:53:35.712Z,8.70
2023-03-14T11:56:02.809Z,8.64
2023-03-14T11:58:34.673Z,8.51
2023-03-14T12:01:06.595Z,8.79
2023-03-14T12:03:40.475Z,8.90
2023-03-14T12:06:19.784Z,9.15
2023-03-14T12:08:50.425Z,9.26
2023-03-14T12:11:22.164Z,9.20
2023-03-14T12:13:51.510Z,8.95
2023-03-14T12:16:33.237Z,9.24
2023-03-14T12:19:15.973Z,8.97
2023-03-14T12:21:50.208Z,8.58
2023-03-14T12:24:19.858Z,8.68
2023-03-14T12:26:54.594Z,8.68
2023-03-14T12:29:21.218Z,8.69
2023-03-14T12:31:50.208Z,8.33
2023-03-14T12:34:28.885Z,8.42
2023-03-14T12:37:02.475Z,8.53
2023-03-14T12:39:47.850Z,8.42
2023-03-14T12:42:19.174Z,8.20
2023-03-14T12:44:48.716Z,8.11
2023-03-14T12:47:49.531Z,8.01
2023-03-14T12:50:21.500Z,8.01
2023-03-14T12:53:13.502Z,7.85
2023-03-14T12:55:49.338Z,7.98
2023-03-14T12:58:21.294Z,7.83
2023-03-14T13:00:55.396Z,7.84
2023-03-14T13:03:26.318Z,8.00
2023-03-14T13:05:54.241Z,7.96
2023-03-14T13:08:35.409Z,8.06
2023-03-14T13:11:03.609Z,8.13
2023-03-14T13:13:30.525Z,8.17
2023-03-14T13:15:58.484Z,8.25
2023-03-14T13:18:30.729Z,8.25
2023-03-14T13:21:02.343Z,8.11
2023-03-14T13:23:32.354Z,8.18
2023-03-14T13:26:00.557Z,8.01
2023-03-14T13:28:28.231Z,8.16
2023-03-14T13:30:57.236Z,8.07
2023-03-14T13:33:25.838Z,8.17
2023-03-14T13:35:57.345Z,7.96
2023-03-14T13:38:27.337Z,8.18
2023-03-14T13:40:56.538Z,8.03
2023-03-14T13:43:28.248Z,8.19
2023-03-14T13:45:57.520Z,8.37
2023-03-14T13:48:29.558Z,8.44
2023-03-14T13:51:00.380Z,8.54
2023-03-14T13:53:27.010Z,8.39
2023-03-14T13:55:55.308Z,8.65
2023-03-14T13:58:25.207Z,8.73
2023-03-14T14:00:58.081Z,8.84
2023-03-14T14:03:24.890Z,8.84
2023-03-14T14:05:56.149Z,8.83
2023-03-14T14:08:22.991Z,8.79
2023-03-14T14:10:50.197Z,8.67
2023-03-14T14:13:22.014Z,8.80
2023-03-14T14:15:52.430Z,8.79
2023-03-14T14:18:23.294Z,8.61
2023-03-14T14:20:50.930Z,8.35
2023-03-14T14:23:21.447Z,8.43
2023-03-14T14:25:50.588Z,8.29
2023-03-14T14:28:23.986Z,8.13
2023-03-14T14:31:01.680Z,7.90
2023-03-14T14:33:28.437Z,7.67
2023-03-14T14:35:58.331Z,7.95
2023-03-14T14:38:27.094Z,7.91
2023-03-14T14:41:00.976Z,7.95
2023-03-14T14:43:31.361Z,7.93
2023-03-14T14:45:58.471Z,7.81
2023-03-14T14:48:27.157Z,7.30
2023-03-14T14:50:59.631Z,8.00
2023-03-14T14:53:31.101Z,8.06
2023-03-14T14:56:00.535Z,7.96
2023-03-14T14:58:34.020Z,8.07
2023-03-14T15:01:06.393Z,7.88
2023-03-14T15:03:35.392Z,7.92
2023-03-14T15:06:02.393Z,7.90
2023-03-14T15:08:31.038Z,7.83
2023-03-14T15:10:58.514Z,7.82
2023-03-14T15:13:25.278Z,7.82
2023-03-14T15:15:52.529Z,7.50
2023-03-14T15:18:19.514Z,7.72
2023-03-14T15:20:46.331Z,7.52
2023-03-14T15:23:14.764Z,7.63
2023-03-14T15:25:55.037Z,7.54
2023-03-14T15:28:24.621Z,7.66
2023-03-14T15:30:53.245Z,7.59
2023-03-14T15:33:20.744Z,7.38
2023-03-14T15:35:48.064Z,7.33
2023-03-14T15:38:18.027Z,7.53
2023-03-14T15:40:45.929Z,7.25
2023-03-14T15:43:12.804Z,7.64
2023-03-14T15:45:39.517Z,7.63
2023-03-14T15:48:06.411Z,7.54
2023-03-14T15:50:33.399Z,7.60
2023-03-14T15:53:00.055Z,7.64
2023-03-14T15:55:26.747Z,7.68
2023-03-14T15:57:55.209Z,7.64
2023-03-14T16:00:22.581Z,7.47
2023-03-14T16:02:49.528Z,7.36
2023-03-14T16:05:17.094Z,7.62
2023-03-14T16:07:43.705Z,7.67
2023-03-14T16:10:12.663Z,7.69
2023-03-14T16:12:39.579Z,7.52
2023-03-14T16:15:09.847Z,7.55
2023-03-14T16:17:37.194Z,7.40
2023-03-14T16:20:04.600Z,7.26
2023-03-14T16:22:31.290Z,7.01
2023-03-14T16:24:57.897Z,6.86
2023-03-14T16:27:24.543Z,6.60
2023-03-14T16:29:51.198Z,6.80
2023-03-14T16:32:19.212Z,6.86
2023-03-14T16:34:45.892Z,6.55
2023-03-14T16:37:12.525Z,6.65
2023-03-14T16:42:25.827Z,6.66
2023-03-14T16:44:52.417Z,6.47
2023-03-14T16:47:20.391Z,6.55
2023-03-14T16:49:46.963Z,6.42
2023-03-14T16:52:13.606Z,6.26
2023-03-14T16:54:40.122Z,6.47
2023-03-14T16:57:06.845Z,6.36
2023-03-14T16:59:33.570Z,6.53
2023-03-14T17:02:00.144Z,6.42
2023-03-14T17:04:28.450Z,6.38
2023-03-14T17:06:55.155Z,6.18
2023-03-14T17:09:21.697Z,6.24
2023-03-14T17:11:48.334Z,6.29
2023-03-14T17:14:14.870Z,6.12
2023-03-14T17:16:41.530Z,6.07
2023-03-14T17:19:08.192Z,6.19
2023-03-14T17:21:36.212Z,6.13
2023-03-14T17:24:02.874Z,6.08
2023-03-14T17:26:29.554Z,6.13
2023-03-14T17:28:56.087Z,5.99
2023-03-14T17:31:22.831Z,5.81
2023-03-14T17:33:49.847Z,5.72
2023-03-14T17:36:16.508Z,5.83
2023-03-14T17:38:44.656Z,5.76
2023-03-14T17:41:13.024Z,5.76
2023-03-14T17:43:41.830Z,5.85
2023-03-14T17:46:10.554Z,5.80
2023-03-14T17:48:37.153Z,5.86
2023-03-14T17:51:04.190Z,5.37
2023-03-14T17:53:31.039Z,5.86
2023-03-14T17:55:59.029Z,5.81
2023-03-14T17:58:25.843Z,5.76
2023-03-14T18:00:52.532Z,5.83
2023-03-14T18:03:19.128Z,5.84
2023-03-14T18:05:45.975Z,5.79
2023-03-14T18:08:14.659Z,5.59
2023-03-14T18:10:41.424Z,5.58
2023-03-14T18:13:09.329Z,5.51
2023-03-14T18:15:35.967Z,5.79
2023-03-14T18:18:02.976Z,5.80
2023-03-14T18:20:30.379Z,5.81
2023-03-14T18:22:56.924Z,5.83
2023-03-14T18:25:23.617Z,5.78
2023-03-14T18:27:50.211Z,5.81
2023-03-14T18:30:18.544Z,5.81
2023-03-14T18:32:45.123Z,5.71
2023-03-14T18:35:11.774Z,5.68
2023-03-14T18:37:38.298Z,5.68
2023-03-14T18:40:05.826Z,5.72
2023-03-14T18:42:32.419Z,5.66
2023-03-14T18:44:59.158Z,5.69
2023-03-14T18:47:28.145Z,5.53
2023-03-14T18:49:54.880Z,5.66
2023-03-14T18:52:21.434Z,5.62
2023-03-14T18:54:48.041Z,5.56
2023-03-14T18:57:14.660Z,5.57
2023-03-14T18:59:41.446Z,5.52
2023-03-14T19:02:09.362Z,5.55
2023-03-14T19:04:37.411Z,5.49
2023-03-14T19:07:04.060Z,5.47
2023-03-14T19:09:30.696Z,5.45
2023-03-14T19:11:57.268Z,5.48
2023-03-14T19:14:23.918Z,5.52
2023-03-14T19:16:50.587Z,5.11
2023-03-14T19:19:17.293Z,5.19
2023-03-14T19:21:45.180Z,5.45
2023-03-14T19:24:17.493Z,5.33
2023-03-14T19:26:44.158Z,5.46
2023-03-14T19:29:10.703Z,5.25
2023-03-14T19:31:37.867Z,5.43
2023-03-14T19:34:04.538Z,5.43
2023-03-14T19:36:33.302Z,5.43
2023-03-14T19:39:02.522Z,5.40
2023-03-14T19:41:30.358Z,5.35
2023-03-14T19:43:57.208Z,5.23
2023-03-14T19:46:24.306Z,5.27
2023-03-14T19:48:51.104Z,5.22
2023-03-14T19:51:17.739Z,5.20
2023-03-14T19:53:44.431Z,5.20
2023-03-14T19:56:12.414Z,5.18
2023-03-14T19:58:40.425Z,5.14
2023-03-14T20:01:07.907Z,5.10
2023-03-14T20:03:35.210Z,4.88
2023-03-14T20:06:04.504Z,5.09
2023-03-14T20:08:31.090Z,4.94
2023-03-14T20:10:57.741Z,5.03
2023-03-14T20:13:25.682Z,5.00
2023-03-14T20:15:52.322Z,4.96
2023-03-14T20:18:19.029Z,4.72
2023-03-14T20:20:45.974Z,4.91
2023-03-14T20:23:13.815Z,4.78
2023-03-14T20:25:52.236Z,4.51
2023-03-14T20:28:18.853Z,4.80
2023-03-14T20:30:46.827Z,4.74
2023-03-14T20:33:13.542Z,4.71
2023-03-14T20:35:40.098Z,4.70
2023-03-14T20:38:06.725Z,4.66
2023-03-14T20:40:33.531Z,4.63
2023-03-14T20:43:00.278Z,4.62
2023-03-14T20:45:26.866Z,4.51
2023-03-14T20:47:54.896Z,4.59
2023-03-14T20:50:21.518Z,4.37
2023-03-14T20:52:48.236Z,4.39
2023-03-14T20:55:14.809Z,4.24
2023-03-14T20:57:41.454Z,4.18
2023-03-14T21:00:09.075Z,4.33
2023-03-14T21:02:35.712Z,4.29
2023-03-14T21:05:04.657Z,4.24
2023-03-14T21:07:32.100Z,4.16
2023-03-14T21:09:58.811Z,4.07
2023-03-14T21:12:25.767Z,3.76
2023-03-14T21:14:52.279Z,3.94
2023-03-14T21:17:18.901Z,3.87
2023-03-14T21:19:45.458Z,3.77
2023-03-14T21:22:13.420Z,3.61
2023-03-14T21:24:39.948Z,3.57
2023-03-14T21:27:07.092Z,3.44
2023-03-14T21:29:33.702Z,3.36
2023-03-14T21:32:00.470Z,3.02
2023-03-14T21:34:27.358Z,3.26
2023-03-14T21:36:54.375Z,3.01
2023-03-14T21:39:23.048Z,2.77
2023-03-14T21:41:49.914Z,2.97
2023-03-14T21:44:16.753Z,2.89
2023-03-14T21:46:43.419Z,2.83
2023-03-14T21:49:09.996Z,2.75
2023-03-14T21:51:36.657Z,2.67
2023-03-14T21:54:03.233Z,2.52
2023-03-14T21:56:31.194Z,2.53
2023-03-14T21:58:57.756Z,2.47
2023-03-14T22:01:24.425Z,2.15
2023-03-14T22:03:51.210Z,2.21
2023-03-14T22:06:17.842Z,2.24
2023-03-14T22:08:44.384Z,2.15
2023-03-14T22:11:11.045Z,2.07
2023-03-14T22:13:39.038Z,1.90
2023-03-14T22:16:06.984Z,1.93
2023-03-14T22:18:34.163Z,1.85
2023-03-14T22:21:00.846Z,1.77
2023-03-14T22:23:27.448Z,1.72
2023-03-14T22:25:54.304Z,1.68
2023-03-14T22:28:20.956Z,1.53
2023-03-14T22:30:51.779Z,1.57
2023-03-14T22:33:19.325Z,1.55
2023-03-14T22:35:47.874Z,1.51
2023-03-14T22:38:14.598Z,1.49
2023-03-14T22:40:41.213Z,1.15
2023-03-14T22:43:07.906Z,1.45
2023-03-14T22:45:34.785Z,1.39
2023-03-14T22:48:02.973Z,1.45
2023-03-14T22:50:29.822Z,1.43
2023-03-14T22:52:57.333Z,1.28
2023-03-14T22:55:24.069Z,1.38
2023-03-14T22:57:52.053Z,1.34
2023-03-14T23:00:19.493Z,1.35
2023-03-14T23:02:46.137Z,1.32
2023-03-14T23:05:14.362Z,1.31
2023-03-14T23:07:41.302Z,1.27
2023-03-14T23:10:09.082Z,1.25
2023-03-14T23:12:35.679Z,1.21
2023-03-14T23:15:02.396Z,1.15
2023-03-14T23:17:29.165Z,1.02
2023-03-14T23:19:55.837Z,1.13
2023-03-14T23:22:23.852Z,1.10
2023-03-14T23:24:50.466Z,1.16
2023-03-14T23:27:17.340Z,1.12
2023-03-14T23:29:45.785Z,0.79
2023-03-14T23:32:12.750Z,0.80
2023-03-14T23:34:39.366Z,0.85
2023-03-14T23:37:06.085Z,0.79
2023-03-14T23:39:34.103Z,0.69
2023-03-14T23:42:00.708Z,0.63
2023-03-14T23:44:27.392Z,0.59
2023-03-14T23:46:54.116Z,0.53
2023-03-14T23:49:20.656Z,0.43
2023-03-14T23:51:47.414Z,0.45
2023-03-14T23:54:14.282Z,0.43
2023-03-14T23:56:42.238Z,0.48
2023-03-14T23:59:08.895Z,0.46
